Time;durP1;ratioP1;P1;durP2;ratioP2;P2;SDS_P1;SDS_P2;PMS_P1;PMS_P2;Temp;Humidity;BMP_temperature;BMP_pressure;BME280_temperature;BME280_humidity;BME280_pressure;Samples;Min_cycle;Max_cycle;Signal;HPM_P1;HPM_P2
2022/10/31 00:00:15;;;;;;;17.67;11.10;;;;;;;15.38;71.90;101977.28;5038736;28;20076;-72
2022/10/31 00:02:40;;;;;;;17.40;11.20;;;;;;;15.37;71.85;101984.81;5041613;28;20044;-72
2022/10/31 00:05:06;;;;;;;15.23;11.25;;;;;;;15.35;71.82;101978.63;5034414;28;20093;-72
2022/10/31 00:07:34;;;;;;;16.00;10.98;;;;;;;15.35;72.18;101980.56;5043591;28;20476;-72
2022/10/31 00:09:59;;;;;;;17.95;11.30;;;;;;;15.35;72.06;101983.38;5053399;28;20095;-71
2022/10/31 00:12:26;;;;;;;16.73;11.75;;;;;;;15.31;71.97;101983.03;5042118;28;20029;-71
2022/10/31 00:14:54;;;;;;;19.70;11.63;;;;;;;15.34;72.15;101982.53;5033084;28;20026;-72
2022/10/31 00:17:19;;;;;;;19.35;11.82;;;;;;;15.35;71.97;101977.78;5061982;28;20097;-72
2022/10/31 00:19:45;;;;;;;16.55;10.73;;;;;;;15.34;72.03;101979.72;5055469;28;20037;-72
2022/10/31 00:22:10;;;;;;;16.25;11.15;;;;;;;15.33;71.86;101980.00;5033073;28;20036;-72
2022/10/31 00:24:35;;;;;;;16.33;11.57;;;;;;;15.28;71.98;101980.75;5033757;28;20033;-71
2022/10/31 00:27:00;;;;;;;16.30;11.27;;;;;;;15.26;71.65;101984.94;5035619;28;20029;-72
2022/10/31 00:29:26;;;;;;;16.98;10.55;;;;;;;15.26;71.60;101990.53;5040080;28;20431;-72
2022/10/31 00:31:52;;;;;;;16.50;11.32;;;;;;;15.19;71.64;101982.31;5050986;28;20025;-72
2022/10/31 00:34:18;;;;;;;16.52;10.55;;;;;;;15.23;71.72;101980.69;5054429;28;20040;-72
2022/10/31 00:36:43;;;;;;;17.33;10.85;;;;;;;15.20;71.41;101982.03;5051882;28;20037;-72
2022/10/31 00:39:09;;;;;;;16.23;10.68;;;;;;;15.18;71.50;101978.66;5053776;28;20116;-72
2022/10/31 00:41:34;;;;;;;15.35;10.85;;;;;;;15.16;71.44;101978.06;5053243;28;20464;-72
2022/10/31 00:43:59;;;;;;;13.65;9.95;;;;;;;15.10;71.41;101965.13;5036959;28;20132;-72
2022/10/31 00:46:25;;;;;;;17.60;10.85;;;;;;;15.09;71.68;101977.41;5034366;28;20033;-72
2022/10/31 00:48:50;;;;;;;14.57;10.93;;;;;;;15.09;71.62;101968.16;5040861;28;20025;-72
2022/10/31 00:51:15;;;;;;;14.15;11.02;;;;;;;15.05;71.87;101978.16;5038944;28;20028;-72
2022/10/31 00:53:40;;;;;;;15.73;11.50;;;;;;;15.02;71.56;101968.34;5069811;28;20550;-73
2022/10/31 00:56:06;;;;;;;13.30;10.63;;;;;;;15.00;71.56;101966.91;5050253;28;20029;-73
2022/10/31 00:58:31;;;;;;;15.48;11.30;;;;;;;14.98;71.62;101969.97;5034186;28;20112;-72
2022/10/31 01:00:57;;;;;;;16.52;10.80;;;;;;;14.95;71.72;101973.25;5041660;28;20064;-72
2022/10/31 01:03:24;;;;;;;13.68;11.07;;;;;;;14.94;71.74;101978.00;5052211;28;20051;-72
2022/10/31 01:06:03;;;;;;;16.95;10.77;;;;;;;14.93;71.84;101987.50;5052399;28;20465;-72
2022/10/31 01:08:29;;;;;;;13.60;10.15;;;;;;;14.93;71.60;101970.75;5059951;28;20126;-72
2022/10/31 01:11:02;;;;;;;15.05;11.23;;;;;;;14.91;71.91;101961.75;5072525;28;20028;-72
2022/10/31 01:13:27;;;;;;;18.15;12.13;;;;;;;14.90;71.71;101971.25;5069933;28;20425;-72
2022/10/31 01:15:57;;;;;;;21.45;11.40;;;;;;;14.85;71.85;101937.59;5033698;28;20127;-72
2022/10/31 01:18:22;;;;;;;17.27;11.63;;;;;;;14.87;72.16;101937.34;5037473;28;20478;-72
2022/10/31 01:21:00;;;;;;;16.90;10.70;;;;;;;14.84;71.74;101955.47;5032930;28;20496;-72
2022/10/31 01:23:25;;;;;;;15.38;11.05;;;;;;;14.80;71.81;101953.44;5057628;28;20036;-72
2022/10/31 01:25:59;;;;;;;14.85;10.60;;;;;;;14.80;71.88;101953.44;5053725;28;20032;-72
2022/10/31 01:28:24;;;;;;;16.13;10.30;;;;;;;14.76;71.40;101964.28;5049199;28;20106;-72
2022/10/31 01:30:49;;;;;;;13.65;11.10;;;;;;;14.75;71.29;101970.16;5032473;28;20053;-72
2022/10/31 01:33:15;;;;;;;12.25;10.25;;;;;;;14.73;71.37;101964.78;5031798;28;20021;-72
2022/10/31 01:35:40;;;;;;;14.45;10.63;;;;;;;14.74;71.29;101972.09;5032446;28;20139;-72
2022/10/31 01:38:05;;;;;;;13.90;10.82;;;;;;;14.70;71.56;101970.91;5047518;28;20024;-72
2022/10/31 01:40:31;;;;;;;19.35;11.45;;;;;;;14.69;71.47;101974.78;5065661;28;20049;-72
2022/10/31 01:42:56;;;;;;;18.17;10.88;;;;;;;14.64;71.21;101971.91;5034114;28;20037;-72
2022/10/31 01:45:21;;;;;;;14.35;10.10;;;;;;;14.62;71.38;101971.31;5033622;28;20049;-72
2022/10/31 01:47:48;;;;;;;15.10;10.75;;;;;;;14.62;71.40;101972.19;5031635;28;20029;-72
2022/10/31 01:50:33;;;;;;;15.40;11.00;;;;;;;14.58;71.67;101970.13;5032290;28;20072;-71
2022/10/31 01:53:01;;;;;;;14.73;10.82;;;;;;;14.52;71.28;101960.81;5051432;28;20126;-72
2022/10/31 01:55:33;;;;;;;12.63;10.18;;;;;;;14.51;71.14;101966.66;5048870;28;20028;-72
2022/10/31 01:58:09;;;;;;;13.65;10.40;;;;;;;14.47;71.37;101961.53;5035062;28;20048;-72
2022/10/31 02:00:34;;;;;;;16.08;10.70;;;;;;;14.48;70.66;101956.78;5049625;28;20051;-72
2022/10/31 02:02:59;;;;;;;14.80;10.25;;;;;;;14.48;70.80;101954.84;5033428;28;20029;-72
2022/10/31 02:05:29;;;;;;;16.52;11.18;;;;;;;14.43;70.95;101956.72;5033304;28;20018;-72
2022/10/31 02:08:02;;;;;;;16.08;11.05;;;;;;;14.40;70.94;101955.25;5031571;28;20033;-72
2022/10/31 02:10:28;;;;;;;14.32;10.98;;;;;;;14.40;70.96;101949.69;5036764;28;20079;-72
2022/10/31 02:12:57;;;;;;;17.20;11.52;;;;;;;14.37;70.72;101954.91;5065750;28;20032;-72
2022/10/31 02:15:25;;;;;;;16.95;11.38;;;;;;;14.36;70.78;101950.44;5040584;28;20041;-72
2022/10/31 02:17:51;;;;;;;14.68;11.00;;;;;;;14.34;70.67;101955.41;5032192;28;20080;-71
2022/10/31 02:20:20;;;;;;;18.17;11.55;;;;;;;14.32;70.50;101950.09;5032045;28;20033;-70
2022/10/31 02:23:04;;;;;;;14.70;10.77;;;;;;;14.37;70.61;101946.53;5031799;28;20135;-70
2022/10/31 02:25:57;;;;;;;18.75;11.38;;;;;;;14.34;70.73;101947.88;5043782;28;20044;-71
2022/10/31 02:28:47;;;;;;;17.85;11.57;;;;;;;14.31;70.91;101948.41;5043200;28;20033;-71
2022/10/31 02:31:57;;;;;;;13.63;10.88;;;;;;;14.22;70.71;101942.34;5046271;28;20028;-71
2022/10/31 02:34:31;;;;;;;15.70;10.82;;;;;;;14.12;70.15;101942.19;5049968;28;20024;-71
2022/10/31 02:37:03;;;;;;;16.50;10.93;;;;;;;14.11;70.22;101951.66;5038936;28;20040;-70
2022/10/31 02:39:42;;;;;;;14.77;10.38;;;;;;;14.12;70.09;101944.13;5031453;28;20030;-70
2022/10/31 02:42:40;;;;;;;16.27;10.88;;;;;;;14.16;70.34;101943.38;5037915;28;20535;-71
2022/10/31 02:45:13;;;;;;;14.30;10.48;;;;;;;14.03;69.86;101942.81;5030210;28;20095;-71
2022/10/31 02:47:41;;;;;;;14.82;10.82;;;;;;;14.02;70.23;101949.50;5031024;28;20044;-71
2022/10/31 02:50:12;;;;;;;13.77;10.75;;;;;;;13.99;70.24;101948.94;5030966;28;20087;-71
2022/10/31 02:52:38;;;;;;;14.80;10.32;;;;;;;13.98;70.26;101947.22;5047069;28;20074;-72
2022/10/31 02:55:34;;;;;;;16.45;10.35;;;;;;;14.07;70.49;101944.00;5044794;28;20416;-71
2022/10/31 02:58:13;;;;;;;11.25;10.07;;;;;;;13.98;70.42;101936.03;5034344;28;20508;-71
2022/10/31 03:01:00;;;;;;;14.02;10.45;;;;;;;13.99;70.38;101940.56;5030818;28;20389;-71
2022/10/31 03:03:44;;;;;;;14.07;10.10;;;;;;;13.95;70.45;101944.94;5030633;28;20073;-71
2022/10/31 03:06:24;;;;;;;11.63;10.23;;;;;;;13.93;70.77;101949.06;5031104;28;20042;-71
2022/10/31 03:08:59;;;;;;;11.98;10.23;;;;;;;13.95;70.43;101942.16;5052215;28;20025;-71
2022/10/31 03:11:32;;;;;;;12.30;10.48;;;;;;;13.91;70.42;101946.53;5044667;28;20045;-71
2022/10/31 03:14:06;;;;;;;16.15;9.95;;;;;;;13.90;69.99;101942.03;5053602;28;20042;-72
2022/10/31 03:16:46;;;;;;;15.38;9.77;;;;;;;13.88;70.16;101944.22;5049032;28;20074;-71
2022/10/31 03:19:14;;;;;;;17.40;10.25;;;;;;;13.86;70.80;101942.78;5035106;28;20029;-71
2022/10/31 03:21:47;;;;;;;12.88;9.98;;;;;;;13.84;70.89;101945.00;5041074;28;20041;-72
2022/10/31 03:24:13;;;;;;;;;;;;;;;14.05;70.48;101944.28;5043694;28;20358;-72
2022/10/31 03:26:43;;;;;;;14.43;9.05;;;;;;;13.83;70.56;101938.53;5051723;28;19917;-71
2022/10/31 03:29:13;;;;;;;11.02;9.32;;;;;;;13.76;70.67;101940.66;5053875;28;20376;-72
2022/10/31 03:31:49;;;;;;;13.32;9.20;;;;;;;13.76;70.21;101940.66;5037756;28;20028;-71
2022/10/31 03:34:17;;;;;;;12.10;9.65;;;;;;;13.74;69.96;101945.59;5037493;28;20125;-71
2022/10/31 03:36:45;;;;;;;12.15;9.82;;;;;;;13.71;69.93;101940.50;5034594;28;20037;-72
2022/10/31 03:39:14;;;;;;;12.10;9.82;;;;;;;13.63;69.91;101944.53;5056357;28;20039;-72
2022/10/31 03:41:43;;;;;;;11.98;8.70;;;;;;;13.62;70.35;101948.44;5048550;28;20029;-71
2022/10/31 03:44:14;;;;;;;14.73;9.20;;;;;;;13.56;69.97;101937.41;5055359;28;20368;-71
2022/10/31 03:46:41;;;;;;;12.27;8.98;;;;;;;13.55;70.08;101944.09;5046420;28;20480;-72
2022/10/31 03:49:07;;;;;;;11.70;8.75;;;;;;;13.51;69.92;101939.00;5035231;28;20056;-71
2022/10/31 03:52:05;;;;;;;12.35;8.98;;;;;;;13.52;70.02;101939.88;5052631;28;20478;-72
2022/10/31 03:54:40;;;;;;;15.93;9.70;;;;;;;13.49;69.81;101932.84;5051447;28;20044;-71
2022/10/31 03:57:26;;;;;;;14.77;9.73;;;;;;;13.48;69.90;101931.16;5035105;28;20080;-72
2022/10/31 04:00:05;;;;;;;11.88;9.23;;;;;;;13.47;69.88;101940.59;5034801;28;20460;-72
2022/10/31 04:02:33;;;;;;;12.05;9.13;;;;;;;13.41;69.27;101936.00;5037547;28;20041;-71
2022/10/31 04:05:00;;;;;;;14.10;9.63;;;;;;;13.41;69.73;101933.22;5045195;28;20524;-71
2022/10/31 04:07:30;;;;;;;12.02;9.18;;;;;;;13.36;70.13;101930.31;5051729;28;20050;-71
2022/10/31 04:09:58;;;;;;;12.63;9.68;;;;;;;13.35;70.18;101928.59;5074048;28;20095;-72
2022/10/31 04:12:26;;;;;;;11.38;9.15;;;;;;;13.36;70.01;101943.41;5073619;28;20020;-71
2022/10/31 04:14:52;;;;;;;13.95;9.55;;;;;;;13.35;70.41;101945.34;5068278;28;20056;-71
2022/10/31 04:17:21;;;;;;;13.85;10.15;;;;;;;13.32;70.67;101943.03;5051483;28;20033;-71
2022/10/31 04:19:46;;;;;;;10.68;9.57;;;;;;;13.31;70.24;101940.50;5053251;28;20033;-72
2022/10/31 04:22:12;;;;;;;15.75;10.20;;;;;;;13.32;70.31;101936.63;5052965;28;22744;-71
2022/10/31 04:24:40;;;;;;;13.38;9.40;;;;;;;13.31;70.61;101943.28;5036592;28;20037;-71
2022/10/31 04:27:05;;;;;;;12.50;10.15;;;;;;;13.30;70.34;101939.66;5039716;28;20067;-71
2022/10/31 04:29:30;;;;;;;13.85;9.82;;;;;;;13.32;70.41;101939.41;5046616;28;20031;-71
2022/10/31 04:31:56;;;;;;;14.88;10.30;;;;;;;13.33;70.61;101946.69;5053504;28;20052;-71
2022/10/31 04:34:21;;;;;;;12.77;10.85;;;;;;;13.33;70.76;101947.53;5050529;28;20028;-72
2022/10/31 04:36:46;;;;;;;13.80;10.80;;;;;;;13.31;71.12;101941.34;5048217;28;20138;-71
2022/10/31 04:39:12;;;;;;;13.00;10.02;;;;;;;13.32;71.52;101948.63;5054523;28;20503;-71
2022/10/31 04:41:37;;;;;;;16.15;10.80;;;;;;;13.34;71.77;101949.22;5046218;28;20384;-72
2022/10/31 04:44:02;;;;;;;17.85;10.93;;;;;;;13.31;71.53;101946.91;5048207;28;20029;-71
2022/10/31 04:46:27;;;;;;;17.60;11.55;;;;;;;13.32;71.49;101948.63;5053433;28;20089;-71
2022/10/31 04:48:53;;;;;;;14.80;10.98;;;;;;;13.34;71.60;101932.50;5040063;28;20124;-71
2022/10/31 04:51:18;;;;;;;13.68;11.40;;;;;;;13.33;71.65;101944.75;5039730;28;20040;-71
2022/10/31 04:53:43;;;;;;;18.35;12.30;;;;;;;13.33;71.61;101943.91;5053069;28;20168;-71
2022/10/31 04:56:09;;;;;;;14.77;11.88;;;;;;;13.34;71.63;101940.88;5052608;28;20017;-71
2022/10/31 04:58:34;;;;;;;15.88;11.85;;;;;;;13.29;71.96;101946.34;5057558;28;20111;-71
2022/10/31 05:00:59;;;;;;;18.60;11.60;;;;;;;13.33;71.55;101949.47;5050812;28;20475;-71
2022/10/31 05:03:24;;;;;;;14.75;11.80;;;;;;;13.33;71.43;101938.34;5033040;28;20026;-72
2022/10/31 05:05:50;;;;;;;15.45;11.43;;;;;;;13.28;71.70;101939.03;5040871;28;20025;-71
2022/10/31 05:08:15;;;;;;;16.30;12.18;;;;;;;13.26;71.87;101932.88;5048468;28;20079;-71
2022/10/31 05:10:41;;;;;;;15.35;11.80;;;;;;;13.29;71.74;101932.41;5052385;28;20021;-71
2022/10/31 05:13:06;;;;;;;16.25;12.25;;;;;;;13.22;72.09;101935.28;5049500;28;20475;-71
2022/10/31 05:15:31;;;;;;;17.15;12.15;;;;;;;13.21;71.47;101936.38;5072640;28;20487;-71
2022/10/31 05:17:57;;;;;;;20.13;13.70;;;;;;;13.19;71.93;101932.97;5061901;28;20017;-71
2022/10/31 05:20:28;;;;;;;18.48;12.85;;;;;;;13.13;71.92;101925.59;5044359;28;20763;-71
2022/10/31 05:22:55;;;;;;;19.13;12.32;;;;;;;13.13;71.91;101930.31;5032845;28;20031;-71
2022/10/31 05:25:22;;;;;;;19.83;12.07;;;;;;;13.12;71.65;101932.25;5032268;28;20029;-71
2022/10/31 05:27:50;;;;;;;19.88;12.63;;;;;;;13.12;71.42;101931.41;5032877;28;20060;-71
2022/10/31 05:30:18;;;;;;;16.40;12.77;;;;;;;13.09;71.46;101921.59;5032334;28;20028;-71
2022/10/31 05:32:45;;;;;;;18.02;12.32;;;;;;;13.11;71.33;101921.34;5058376;28;20037;-71
2022/10/31 05:35:16;;;;;;;15.60;11.73;;;;;;;13.08;71.73;101916.25;5066659;28;20050;-71
2022/10/31 05:37:42;;;;;;;15.15;12.45;;;;;;;13.07;71.56;101917.34;5037579;28;20083;-71
2022/10/31 05:40:09;;;;;;;20.48;13.43;;;;;;;13.06;71.65;101919.28;5033090;28;20481;-71
2022/10/31 05:42:37;;;;;;;18.05;13.18;;;;;;;13.07;72.10;101917.34;5040954;28;20041;-71
2022/10/31 05:45:03;;;;;;;18.83;12.70;;;;;;;13.07;72.13;101917.34;5050506;28;20029;-71
2022/10/31 05:47:28;;;;;;;19.08;12.88;;;;;;;13.05;72.25;101916.72;5036762;28;20044;-71
2022/10/31 05:49:54;;;;;;;18.77;12.98;;;;;;;13.06;71.84;101915.66;5051858;28;20485;-72
2022/10/31 05:52:19;;;;;;;19.48;12.75;;;;;;;13.07;71.84;101907.03;5062831;28;20024;-71
2022/10/31 05:54:44;;;;;;;18.83;12.85;;;;;;;13.05;72.25;101912.03;5043206;28;20029;-72
2022/10/31 05:57:10;;;;;;;17.98;13.82;;;;;;;13.03;72.33;101908.63;5045310;28;20056;-72
2022/10/31 05:59:35;;;;;;;16.20;13.27;;;;;;;13.02;71.73;101898.59;5051124;28;20034;-72
2022/10/31 06:02:01;;;;;;;21.00;13.15;;;;;;;13.00;71.55;101900.75;5047522;28;20032;-71
2022/10/31 06:04:26;;;;;;;17.30;14.18;;;;;;;13.01;72.45;101896.91;5045083;28;20083;-70
2022/10/31 06:06:51;;;;;;;19.08;13.60;;;;;;;12.98;71.84;101898.22;5049765;28;20028;-72
2022/10/31 06:09:17;;;;;;;21.58;14.05;;;;;;;12.97;71.86;101896.53;5054653;28;20091;-71
2022/10/31 06:11:42;;;;;;;20.23;13.23;;;;;;;12.95;71.87;101892.28;5049270;28;20055;-70
2022/10/31 06:14:07;;;;;;;19.85;13.15;;;;;;;12.95;71.88;101887.56;5040124;28;20060;-73
2022/10/31 06:16:33;;;;;;;24.60;14.02;;;;;;;12.95;71.74;101890.34;5036619;28;20033;-72
2022/10/31 06:18:58;;;;;;;19.70;13.48;;;;;;;12.94;72.08;101894.22;5050943;28;20029;-72
2022/10/31 06:21:23;;;;;;;18.25;13.85;;;;;;;12.94;72.01;101897.00;5046463;28;20625;-72
2022/10/31 06:23:49;;;;;;;18.88;14.63;;;;;;;12.90;71.55;101894.97;5052313;28;20029;-72
2022/10/31 06:26:14;;;;;;;16.58;13.82;;;;;;;12.88;71.64;101892.41;5050863;28;20032;-72
2022/10/31 06:28:39;;;;;;;18.63;13.18;;;;;;;12.88;71.78;101892.41;5043368;28;20480;-73
2022/10/31 06:31:05;;;;;;;18.00;13.95;;;;;;;12.88;72.08;101897.13;5051725;28;20028;-73
2022/10/31 06:33:30;;;;;;;20.73;14.77;;;;;;;12.86;71.62;101897.38;5048221;28;20037;-72
2022/10/31 06:35:55;;;;;;;22.38;14.30;;;;;;;12.89;72.27;101902.47;5031877;28;20048;-72
2022/10/31 06:38:20;;;;;;;19.73;14.65;;;;;;;12.85;72.82;101900.38;5037647;28;20035;-70
2022/10/31 06:40:46;;;;;;;21.05;14.18;;;;;;;12.83;72.41;101900.66;5035681;28;20033;-69
2022/10/31 06:43:11;;;;;;;17.90;13.25;;;;;;;12.88;72.02;101908.28;5047024;28;20162;-70
2022/10/31 06:45:37;;;;;;;19.27;13.98;;;;;;;12.88;72.39;101911.91;5048698;28;20016;-70
2022/10/31 06:48:03;;;;;;;19.42;14.93;;;;;;;12.87;72.37;101904.63;5048293;28;20040;-72
2022/10/31 06:50:28;;;;;;;21.75;14.13;;;;;;;12.84;72.77;101902.34;5034554;28;20039;-71
2022/10/31 06:52:56;;;;;;;21.17;14.48;;;;;;;12.85;72.79;101898.47;5044278;28;20025;-72
2022/10/31 06:55:22;;;;;;;23.35;13.75;;;;;;;12.82;73.01;101904.53;5038890;28;20108;-72
2022/10/31 06:57:59;;;;;;;22.27;13.95;;;;;;;12.88;72.96;101895.19;5048271;28;20021;-71
2022/10/31 07:00:27;;;;;;;19.60;14.57;;;;;;;12.87;73.08;101896.28;5041387;28;20626;-70
2022/10/31 07:02:53;;;;;;;26.00;15.77;;;;;;;12.90;73.09;101894.97;5035266;28;20035;-72
2022/10/31 07:05:18;;;;;;;24.33;15.35;;;;;;;12.90;73.33;101900.53;5061922;28;20032;-73
2022/10/31 07:07:43;;;;;;;23.10;16.08;;;;;;;12.91;73.39;101891.06;5067960;28;20625;-72
2022/10/31 07:10:09;;;;;;;30.15;16.88;;;;;;;12.93;73.76;101895.31;5031732;28;20025;-73
2022/10/31 07:12:34;;;;;;;24.10;16.20;;;;;;;12.96;74.18;101894.81;5035958;28;20511;-72
2022/10/31 07:14:59;;;;;;;26.30;15.80;;;;;;;12.96;74.40;101900.38;5046707;28;20029;-72
2022/10/31 07:17:25;;;;;;;20.25;15.77;;;;;;;13.00;74.67;101906.31;5045500;28;20033;-73
2022/10/31 07:19:50;;;;;;;22.10;14.98;;;;;;;13.01;74.56;101900.53;5047243;28;20090;-72
2022/10/31 07:22:15;;;;;;;23.10;15.60;;;;;;;13.01;74.78;101897.75;5050450;28;20422;-73
2022/10/31 07:24:40;;;;;;;21.73;15.45;;;;;;;13.05;74.98;101902.78;5054663;28;20063;-72
2022/10/31 07:27:06;;;;;;;21.05;15.05;;;;;;;13.06;74.95;101908.16;5042274;28;20060;-74
2022/10/31 07:29:31;;;;;;;19.67;15.80;;;;;;;13.07;74.82;101901.47;5045842;28;20079;-70
2022/10/31 07:31:56;;;;;;;24.58;15.63;;;;;;;13.08;75.34;101908.72;5049647;28;20052;-72
2022/10/31 07:34:24;;;;;;;23.88;16.58;;;;;;;13.10;75.14;101914.09;5043435;28;20070;-69
2022/10/31 07:36:50;;;;;;;23.05;16.70;;;;;;;13.11;75.40;101911.03;5048099;28;20052;-71
2022/10/31 07:39:16;;;;;;;24.65;16.48;;;;;;;13.15;75.43;101915.03;5054719;28;20025;-71
2022/10/31 07:41:41;;;;;;;21.73;16.52;;;;;;;13.17;76.02;101917.59;5070225;28;20028;-70
2022/10/31 07:44:06;;;;;;;22.25;16.92;;;;;;;13.20;75.92;101905.94;5069967;28;20050;-69
2022/10/31 07:46:34;;;;;;;24.60;17.33;;;;;;;13.22;76.05;101912.97;5069064;28;20085;-72
2022/10/31 07:49:00;;;;;;;22.92;17.40;;;;;;;13.23;76.15;101911.91;5068194;28;20137;-70
2022/10/31 07:51:26;;;;;;;25.95;18.30;;;;;;;13.32;76.53;101911.53;5066800;28;20107;-69
2022/10/31 07:53:51;;;;;;;28.40;17.85;;;;;;;13.33;76.45;101916.88;5051714;28;20036;-69
2022/10/31 07:56:16;;;;;;;27.40;18.33;;;;;;;13.35;76.91;101914.66;5052078;28;20036;-71
2022/10/31 07:58:42;;;;;;;27.98;18.65;;;;;;;13.40;76.74;101908.34;5054061;28;20112;-70
2022/10/31 08:01:07;;;;;;;28.05;19.67;;;;;;;13.45;77.12;101920.47;5053325;28;20392;-70
2022/10/31 08:03:32;;;;;;;28.13;18.88;;;;;;;13.48;77.33;101913.56;5051753;28;20036;-69
2022/10/31 08:05:57;;;;;;;28.70;18.52;;;;;;;13.59;78.18;101914.59;5067390;28;20028;-69
2022/10/31 08:08:24;;;;;;;29.20;20.40;;;;;;;13.62;77.65;101922.47;5066405;28;20044;-74
2022/10/31 08:10:49;;;;;;;29.02;20.33;;;;;;;13.66;77.99;101926.47;5048471;28;20496;-69
2022/10/31 08:13:14;;;;;;;31.40;21.15;;;;;;;13.70;77.95;101925.72;5032188;28;20055;-70
2022/10/31 08:15:41;;;;;;;34.95;22.02;;;;;;;13.75;78.24;101922.19;5046991;28;20529;-71
2022/10/31 08:18:12;;;;;;;30.70;20.80;;;;;;;13.82;77.57;101914.50;5062030;28;20033;-68
2022/10/31 08:20:37;;;;;;;30.17;21.42;;;;;;;13.88;77.54;101921.91;5060224;28;20123;-72
2022/10/31 08:23:04;;;;;;;30.13;21.33;;;;;;;13.91;77.74;101904.66;5070973;28;20119;-73
2022/10/31 08:25:33;;;;;;;31.02;22.45;;;;;;;13.93;78.65;101902.47;5064252;28;20033;-72
2022/10/31 08:27:58;;;;;;;30.23;21.85;;;;;;;13.96;78.65;101903.91;5033697;28;20555;-75
2022/10/31 08:30:27;;;;;;;31.95;23.25;;;;;;;13.99;78.34;101915.44;5038257;28;20029;-74
2022/10/31 08:33:12;;;;;;;34.75;22.35;;;;;;;14.05;79.27;101918.31;5044824;28;20025;-75
2022/10/31 08:35:38;;;;;;;33.60;23.45;;;;;;;14.09;79.25;101908.34;5036240;28;20510;-72
2022/10/31 08:38:03;;;;;;;32.67;24.08;;;;;;;14.11;79.32;101901.41;5048120;28;20036;-73
2022/10/31 08:40:31;;;;;;;35.20;25.13;;;;;;;14.09;79.78;101897.16;5056838;28;20757;-70
2022/10/31 08:43:02;;;;;;;34.88;24.48;;;;;;;14.12;79.39;101883.56;5059164;28;20028;-70
2022/10/31 08:45:28;;;;;;;31.80;22.67;;;;;;;14.13;80.06;101860.09;5033277;28;20060;-70
2022/10/31 08:47:58;;;;;;;34.80;23.20;;;;;;;14.14;79.95;101860.94;5035128;28;20026;-70
2022/10/31 08:50:24;;;;;;;39.22;24.25;;;;;;;14.13;80.31;101862.06;5048250;28;20036;-70
2022/10/31 08:52:49;;;;;;;38.13;25.55;;;;;;;14.15;80.52;101863.50;5051667;28;20031;-71
2022/10/31 08:55:15;;;;;;;36.50;24.08;;;;;;;14.14;80.06;101867.38;5049347;28;20024;-70
2022/10/31 08:57:41;;;;;;;36.17;24.98;;;;;;;14.14;80.27;101886.06;5049543;28;21452;-70
2022/10/31 09:00:07;;;;;;;40.55;25.92;;;;;;;14.15;80.49;101890.59;5052907;28;20032;-70
2022/10/31 09:02:32;;;;;;;36.20;24.90;;;;;;;14.17;80.62;101877.22;5039842;28;20029;-70
2022/10/31 09:04:57;;;;;;;38.97;24.65;;;;;;;14.17;80.21;101877.22;5044377;28;20082;-71
2022/10/31 09:07:22;;;;;;;40.70;27.02;;;;;;;14.18;80.86;101885.31;5053560;28;20119;-69
2022/10/31 09:09:48;;;;;;;37.10;24.80;;;;;;;14.22;81.10;101875.34;5036045;28;20041;-68
2022/10/31 09:12:13;;;;;;;36.00;26.00;;;;;;;14.24;80.96;101877.91;5045936;28;20033;-64
2022/10/31 09:14:38;;;;;;;35.90;24.85;;;;;;;14.25;81.11;101880.41;5042132;28;20114;-71
2022/10/31 09:17:03;;;;;;;39.00;26.15;;;;;;;14.26;80.99;101886.84;5053207;28;20035;-69
2022/10/31 09:19:29;;;;;;;42.45;26.55;;;;;;;14.28;81.10;101895.84;5051221;28;20376;-69
2022/10/31 09:21:54;;;;;;;35.58;20.70;;;;;;;14.57;83.50;101870.63;5046901;28;20043;-69
2022/10/31 09:24:20;;;;;;;34.58;23.25;;;;;;;14.57;81.26;101860.31;5050185;28;20025;-69
2022/10/31 09:26:45;;;;;;;39.65;26.45;;;;;;;14.55;80.92;101842.97;5042230;28;20434;-71
2022/10/31 09:29:10;;;;;;;36.25;26.02;;;;;;;14.55;81.05;101845.75;5039218;28;20025;-71
2022/10/31 09:31:36;;;;;;;36.17;26.63;;;;;;;14.53;80.86;101835.94;5048455;28;20052;-71
2022/10/31 09:34:01;;;;;;;40.88;26.20;;;;;;;14.53;80.96;101830.34;5044210;28;20135;-69
2022/10/31 09:36:26;;;;;;;37.95;26.45;;;;;;;14.51;81.29;101824.19;5051594;28;20045;-68
2022/10/31 09:38:52;;;;;;;42.08;26.63;;;;;;;14.48;81.14;101815.16;5054199;28;20029;-71
2022/10/31 09:41:42;;;;;;;39.97;27.02;;;;;;;14.49;81.57;101808.50;5049814;28;20029;-75
2022/10/31 09:44:21;;;;;;;40.78;27.63;;;;;;;14.47;81.15;101815.44;5032212;28;20041;-65
2022/10/31 09:47:04;;;;;;;41.85;25.77;;;;;;;14.52;81.54;101817.50;5033678;28;20870;-67
2022/10/31 09:49:59;;;;;;;41.05;26.95;;;;;;;14.50;81.43;101834.50;5032483;28;20036;-67
2022/10/31 09:52:36;;;;;;;36.75;25.95;;;;;;;14.52;81.35;101817.50;5032257;28;20493;-67
2022/10/31 09:55:14;;;;;;;40.22;27.25;;;;;;;14.51;81.91;101813.00;5042115;28;20392;-68
2022/10/31 09:57:41;;;;;;;43.72;28.50;;;;;;;14.51;81.94;101815.81;5050542;28;20033;-67
2022/10/31 10:00:14;;;;;;;39.22;27.90;;;;;;;14.51;82.03;101818.59;5043340;28;20040;-63
2022/10/31 10:02:49;;;;;;;41.67;28.52;;;;;;;14.51;81.86;101819.44;5058246;28;20076;-63
2022/10/31 10:05:22;;;;;;;45.85;28.85;;;;;;;14.52;82.19;101806.31;5038247;28;20029;-63
2022/10/31 10:08:16;;;;;;;42.42;28.48;;;;;;;14.58;82.10;101791.31;5036909;28;20037;-62
2022/10/31 10:10:58;;;;;;;41.35;27.70;;;;;;;14.59;82.11;101777.09;5038865;28;20037;-62
2022/10/31 10:13:46;;;;;;;39.20;29.03;;;;;;;14.67;82.82;101781.41;5042554;28;20039;-62
2022/10/31 10:16:47;;;;;;;42.47;29.38;;;;;;;14.80;82.13;101781.00;5035691;28;20383;-63
2022/10/31 10:19:23;;;;;;;45.20;29.83;;;;;;;14.82;82.48;101781.59;5056744;28;20870;-62
2022/10/31 10:22:05;;;;;;;45.15;30.38;;;;;;;14.84;81.87;101771.00;5048838;28;20503;-72
2022/10/31 10:24:54;;;;;;;49.22;30.63;;;;;;;14.89;81.66;101765.47;5048635;28;20048;-72
2022/10/31 10:27:29;;;;;;;44.22;30.83;;;;;;;14.92;82.08;101750.97;5043574;28;20098;-76
2022/10/31 10:30:12;;;;;;;47.55;31.00;;;;;;;14.93;82.20;101749.88;5039798;28;20036;-74
2022/10/31 10:32:50;;;;;;;48.45;30.83;;;;;;;14.93;82.21;101737.84;5031069;28;20033;-75
2022/10/31 10:35:27;;;;;;;48.45;30.88;;;;;;;14.93;81.90;101752.69;5048861;28;20053;-75
2022/10/31 10:37:59;;;;;;;50.78;32.38;;;;;;;14.93;82.29;101763.00;5046269;28;20124;-77
2022/10/31 10:40:26;;;;;;;49.15;31.70;;;;;;;14.94;81.98;101770.31;5048373;28;20389;-78
2022/10/31 10:43:32;;;;;;;57.72;33.60;;;;;;;14.96;81.87;101763.31;5040138;28;20112;-77
2022/10/31 10:49:32;;;;;;;50.33;31.20;;;;;;;15.03;81.50;101768.72;5056025;28;20079;-78
2022/10/31 10:52:21;;;;;;;50.95;32.30;;;;;;;15.04;81.72;101763.97;5046638;28;20094;-78
2022/10/31 10:55:07;;;;;;;56.53;34.10;;;;;;;15.06;82.10;101745.00;5054659;28;20025;-78
2022/10/31 10:58:00;;;;;;;62.30;35.85;;;;;;;15.07;82.27;101741.09;5060677;28;20090;-77
2022/10/31 11:00:49;;;;;;;59.15;35.60;;;;;;;15.10;82.25;101735.00;5052414;28;20418;-77
2022/10/31 11:03:16;;;;;;;56.78;35.22;;;;;;;15.09;82.79;101742.53;5049558;28;20181;-77
2022/10/31 11:05:54;;;;;;;49.58;33.08;;;;;;;15.11;82.73;101743.09;5057623;28;20061;-77
2022/10/31 11:08:34;;;;;;;53.08;34.28;;;;;;;15.11;82.33;101737.50;5055092;28;20051;-77
2022/10/31 11:11:29;;;;;;;58.38;34.63;;;;;;;15.16;82.01;101742.31;5056479;28;20033;-76
2022/10/31 11:14:02;;;;;;;55.95;34.78;;;;;;;15.18;82.64;101734.50;5053413;28;20045;-78
2022/10/31 11:16:40;;;;;;;55.35;34.90;;;;;;;15.22;82.18;101736.53;5056761;28;20117;-79
2022/10/31 11:19:28;;;;;;;57.38;34.85;;;;;;;15.26;82.11;101727.59;5056215;28;20025;-79
2022/10/31 11:22:05;;;;;;;58.40;34.28;;;;;;;15.27;82.58;101713.34;5044859;28;20111;-78
2022/10/31 11:24:36;;;;;;;55.42;36.10;;;;;;;15.29;82.64;101705.56;5050821;28;20468;-78